Time;durP1;ratioP1;P1;durP2;ratioP2;P2;SDS_P1;SDS_P2;PMS_P1;PMS_P2;Temp;Humidity;BMP_temperature;BMP_pressure;BME280_temperature;BME280_humidity;BME280_pressure;Samples;Min_cycle;Max_cycle;Signal;HPM_P1;HPM_P2
2021/03/04 00:02:09;;;;;;;72.50;37.85;;;7.50;97.10;;;;;;5028721;28;20034;-85
2021/03/04 00:04:35;;;;;;;71.05;39.20;;;7.50;97.10;;;;;;5012537;28;20084;-84
2021/03/04 00:07:00;;;;;;;74.28;38.58;;;7.50;97.10;;;;;;5011905;28;20248;-84
2021/03/04 00:09:26;;;;;;;73.10;39.28;;;7.50;97.10;;;;;;5028490;28;20025;-84
2021/03/04 00:11:52;;;;;;;67.35;36.00;;;7.50;97.10;;;;;;5044752;28;20067;-84
2021/03/04 00:14:18;;;;;;;66.30;35.88;;;7.50;97.00;;;;;;5028435;28;20025;-84
2021/03/04 00:16:43;;;;;;;65.15;35.92;;;7.50;97.00;;;;;;5011954;28;20026;-84
2021/03/04 00:19:09;;;;;;;68.78;36.95;;;7.50;97.00;;;;;;5045174;28;20029;-85
2021/03/04 00:21:35;;;;;;;75.90;38.45;;;7.40;97.00;;;;;;5028346;28;20032;-87
2021/03/04 00:24:01;;;;;;;71.72;37.65;;;7.40;96.90;;;;;;5028359;28;20057;-84
2021/03/04 00:26:26;;;;;;;70.25;37.10;;;7.40;96.90;;;;;;5011645;28;20057;-84
2021/03/04 00:28:52;;;;;;;66.07;36.78;;;7.40;96.90;;;;;;5028396;28;20029;-84
2021/03/04 00:31:18;;;;;;;67.65;37.05;;;7.40;96.90;;;;;;5028039;28;20140;-84
2021/03/04 00:33:43;;;;;;;71.32;37.72;;;7.40;96.90;;;;;;5011703;28;20029;-85
2021/03/04 00:36:09;;;;;;;69.13;37.03;;;7.40;96.90;;;;;;5011694;28;20063;-84
2021/03/04 00:38:35;;;;;;;65.55;37.50;;;7.40;97.00;;;;;;5011294;28;20080;-85
2021/03/04 00:41:01;;;;;;;68.55;38.55;;;7.30;97.00;;;;;;5011538;28;20029;-86
2021/03/04 00:43:26;;;;;;;76.10;38.45;;;7.30;97.00;;;;;;5028176;28;20415;-84
2021/03/04 00:45:52;;;;;;;66.93;38.08;;;7.40;97.00;;;;;;5044397;28;20066;-85
2021/03/04 00:48:18;;;;;;;59.03;34.95;;;7.40;96.90;;;;;;5044176;28;20041;-87
2021/03/04 00:50:43;;;;;;;67.60;37.40;;;7.40;96.80;;;;;;5027727;28;20037;-87
2021/03/04 00:53:09;;;;;;;61.03;34.65;;;7.50;96.80;;;;;;5044243;28;20479;-86
2021/03/04 00:55:35;;;;;;;65.25;34.00;;;7.40;96.70;;;;;;5027657;28;20040;-86
2021/03/04 00:58:01;;;;;;;56.33;33.38;;;7.40;96.60;;;;;;5027687;28;20033;-85
2021/03/04 01:00:27;;;;;;;59.80;34.20;;;7.50;96.50;;;;;;5027763;28;20140;-83
2021/03/04 01:02:53;;;;;;;53.72;35.05;;;7.50;96.50;;;;;;5027558;28;20112;-84
2021/03/04 01:05:19;;;;;;;59.78;33.80;;;7.50;96.50;;;;;;5027391;28;20037;-85
2021/03/04 01:07:45;;;;;;;54.83;33.80;;;7.40;96.40;;;;;;5027822;28;20109;-85
2021/03/04 01:10:14;;;;;;;55.00;33.25;;;7.50;96.50;;;;;;5043831;28;20121;-84
2021/03/04 01:12:40;;;;;;;58.40;35.42;;;7.50;96.50;;;;;;5011188;28;20052;-84
2021/03/04 01:15:13;;;;;;;55.35;34.92;;;7.50;96.40;;;;;;5044004;28;20471;-83
2021/03/04 01:17:39;;;;;;;54.60;34.58;;;7.40;96.40;;;;;;5043797;28;20056;-84
2021/03/04 01:20:11;;;;;;;61.53;34.42;;;7.50;96.60;;;;;;5043905;28;20021;-85
2021/03/04 01:22:37;;;;;;;55.70;33.97;;;7.50;96.40;;;;;;5028638;28;20121;-86
2021/03/04 01:25:05;;;;;;;53.88;33.50;;;7.50;96.40;;;;;;5010796;28;20558;-86
2021/03/04 01:27:30;;;;;;;53.42;31.20;;;7.50;96.30;;;;;;5043687;28;20124;-84
2021/03/04 01:29:56;;;;;;;52.13;32.78;;;7.50;96.20;;;;;;5043573;28;20159;-83
2021/03/04 01:32:22;;;;;;;49.55;31.52;;;7.50;96.30;;;;;;5043731;28;20033;-87
2021/03/04 01:34:48;;;;;;;59.15;34.92;;;7.50;96.30;;;;;;5043927;28;20025;-85
2021/03/04 01:37:14;;;;;;;55.65;33.53;;;7.50;96.30;;;;;;5027251;28;20030;-85
2021/03/04 01:39:40;;;;;;;54.25;32.40;;;7.50;96.30;;;;;;5027081;28;20057;-84
2021/03/04 01:42:06;;;;;;;52.72;32.53;;;7.50;96.30;;;;;;5027239;28;20043;-85
2021/03/04 01:44:32;;;;;;;49.33;30.85;;;7.50;96.30;;;;;;5043569;28;20029;-85
2021/03/04 01:46:57;;;;;;;51.70;30.27;;;7.40;96.20;;;;;;5027047;28;20032;-85
2021/03/04 01:49:23;;;;;;;52.33;29.35;;;7.40;96.30;;;;;;5011325;28;20042;-83
2021/03/04 01:51:49;;;;;;;47.92;29.55;;;7.40;96.30;;;;;;5026863;28;20029;-87
2021/03/04 01:54:17;;;;;;;51.35;29.08;;;7.40;96.40;;;;;;5011071;28;20033;-87
2021/03/04 01:56:44;;;;;;;48.28;29.15;;;7.40;96.40;;;;;;5043287;28;20030;-85
2021/03/04 01:59:10;;;;;;;55.42;27.77;;;7.40;96.30;;;;;;5027054;28;20026;-84
2021/03/04 02:01:35;;;;;;;43.25;27.33;;;7.40;96.20;;;;;;5026981;28;20032;-86
2021/03/04 02:04:02;;;;;;;51.33;27.75;;;7.40;96.20;;;;;;5010310;28;20124;-85
2021/03/04 02:06:38;;;;;;;49.47;29.00;;;7.30;96.20;;;;;;5026785;28;20438;-86
2021/03/04 02:09:09;;;;;;;45.03;26.08;;;7.30;96.30;;;;;;5043381;28;20387;-86
2021/03/04 02:11:47;;;;;;;43.78;25.75;;;7.30;96.30;;;;;;5011109;28;20030;-86
2021/03/04 02:14:21;;;;;;;47.75;27.77;;;7.30;96.30;;;;;;5028191;28;20021;-84
2021/03/04 02:16:51;;;;;;;43.72;26.67;;;7.30;96.20;;;;;;5043220;28;20112;-86
2021/03/04 02:19:38;;;;;;;41.00;26.58;;;7.30;96.20;;;;;;5043308;28;20026;-84
2021/03/04 02:22:25;;;;;;;42.03;26.70;;;7.30;96.10;;;;;;5044950;28;20087;-86
2021/03/04 02:25:03;;;;;;;42.03;26.08;;;7.30;96.10;;;;;;5047315;28;20025;-86
2021/03/04 02:27:29;;;;;;;43.30;26.73;;;7.30;96.10;;;;;;5047244;28;20041;-83
2021/03/04 02:30:01;;;;;;;43.95;27.35;;;7.30;96.20;;;;;;5030412;28;20087;-86
2021/03/04 02:32:30;;;;;;;46.17;28.58;;;7.30;96.10;;;;;;5046854;28;20021;-84
2021/03/04 02:35:05;;;;;;;31.70;20.33;;;7.30;96.10;;;;;;5047192;28;20088;-84
2021/03/04 02:37:35;;;;;;;45.10;27.95;;;7.20;96.10;;;;;;5047003;28;20537;-85
2021/03/04 02:40:04;;;;;;;49.97;28.15;;;7.20;96.20;;;;;;5031745;28;20030;-85
2021/03/04 02:42:31;;;;;;;46.40;29.10;;;7.20;96.20;;;;;;5046693;28;20033;-86
2021/03/04 02:44:58;;;;;;;47.45;27.45;;;7.20;96.20;;;;;;5030038;28;20117;-86
2021/03/04 02:47:25;;;;;;;44.45;27.60;;;7.20;96.30;;;;;;5031487;28;20056;-83
2021/03/04 02:49:52;;;;;;;44.95;27.58;;;7.20;96.30;;;;;;5029842;28;20041;-86
2021/03/04 02:52:18;;;;;;;42.70;26.98;;;7.10;96.10;;;;;;5031183;28;20033;-84
2021/03/04 02:54:46;;;;;;;56.00;29.48;;;7.10;96.10;;;;;;5031170;28;20064;-83
2021/03/04 02:57:13;;;;;;;43.97;27.98;;;7.10;96.10;;;;;;5046506;28;20014;-84
2021/03/04 02:59:40;;;;;;;46.17;28.02;;;7.00;96.10;;;;;;5013596;28;20042;-85
2021/03/04 03:02:08;;;;;;;49.33;27.08;;;7.00;96.10;;;;;;5031084;28;20074;-85
2021/03/04 03:04:36;;;;;;;49.25;27.77;;;7.10;96.10;;;;;;5013173;28;20037;-85
2021/03/04 03:07:04;;;;;;;33.13;19.52;;;7.10;96.10;;;;;;5046233;28;20021;-85
2021/03/04 03:09:31;;;;;;;40.35;23.58;;;7.10;96.00;;;;;;5046321;28;20025;-85
2021/03/04 03:11:58;;;;;;;43.35;24.75;;;7.10;95.90;;;;;;5045908;28;20499;-86
2021/03/04 03:14:24;;;;;;;38.97;23.15;;;7.10;95.90;;;;;;5013331;28;20029;-85
2021/03/04 03:16:49;;;;;;;36.78;22.95;;;7.00;95.90;;;;;;5029339;28;20038;-84
2021/03/04 03:19:15;;;;;;;34.53;21.65;;;7.00;95.90;;;;;;5029202;28;20028;-87
2021/03/04 03:21:41;;;;;;;34.15;21.80;;;7.00;96.10;;;;;;5013165;28;20029;-84
2021/03/04 03:24:07;;;;;;;35.40;20.00;;;6.90;95.90;;;;;;5012980;28;20060;-85
2021/03/04 03:26:33;;;;;;;32.90;19.45;;;6.90;95.90;;;;;;5012640;28;20127;-85
2021/03/04 03:29:12;;;;;;;33.85;20.90;;;6.80;95.90;;;;;;5065742;28;20844;-85
2021/03/04 03:31:41;;;;;;;41.80;21.50;;;6.80;95.90;;;;;;5065538;28;20112;-85
2021/03/04 03:34:08;;;;;;;34.35;21.38;;;6.80;95.70;;;;;;5064354;28;20023;-84
2021/03/04 03:36:35;;;;;;;37.35;20.58;;;6.80;95.70;;;;;;5064279;28;20673;-84
2021/03/04 03:39:03;;;;;;;34.22;21.23;;;6.70;95.70;;;;;;5047532;28;20033;-85
2021/03/04 03:41:29;;;;;;;33.85;21.45;;;6.70;95.70;;;;;;5064429;28;20025;-84
2021/03/04 03:43:55;;;;;;;35.40;21.50;;;6.70;95.70;;;;;;5048147;28;20029;-84
2021/03/04 03:46:22;;;;;;;35.15;20.95;;;6.60;95.70;;;;;;5030983;28;20369;-85
2021/03/04 03:48:49;;;;;;;34.25;20.48;;;6.60;95.70;;;;;;5047444;28;20316;-84
2021/03/04 03:51:16;;;;;;;36.65;21.40;;;6.60;95.70;;;;;;5063999;28;20031;-86
2021/03/04 03:53:42;;;;;;;34.92;21.25;;;6.60;95.70;;;;;;5030711;28;20044;-85
2021/03/04 03:56:08;;;;;;;32.90;20.55;;;6.50;95.70;;;;;;5047589;28;20029;-84
2021/03/04 03:58:37;;;;;;;39.00;21.10;;;6.60;95.80;;;;;;5030766;28;20037;-82
2021/03/04 04:01:03;;;;;;;36.75;21.75;;;6.60;95.80;;;;;;5063605;28;20029;-82
2021/03/04 04:03:30;;;;;;;35.60;22.20;;;6.60;95.80;;;;;;5047086;28;20039;-85
2021/03/04 04:05:55;;;;;;;41.72;20.40;;;6.60;95.70;;;;;;5063866;28;20032;-84
2021/03/04 04:08:25;;;;;;;31.65;19.55;;;6.60;95.70;;;;;;5063498;28;20033;-83
2021/03/04 04:10:51;;;;;;;35.55;21.92;;;6.60;95.70;;;;;;5063606;28;20489;-84
2021/03/04 04:13:20;;;;;;;33.88;20.15;;;6.60;95.60;;;;;;5047216;28;20039;-84
2021/03/04 04:15:46;;;;;;;40.03;21.57;;;6.50;95.60;;;;;;5063869;28;20029;-83
2021/03/04 04:18:12;;;;;;;36.65;20.95;;;6.50;95.60;;;;;;5030720;28;20557;-85
2021/03/04 04:20:39;;;;;;;37.25;21.15;;;6.50;95.60;;;;;;5047031;28;20541;-84
2021/03/04 04:23:06;;;;;;;43.13;23.73;;;6.50;95.50;;;;;;5046865;28;20041;-84
2021/03/04 04:25:41;;;;;;;39.67;22.98;;;6.50;95.50;;;;;;5064594;28;20023;-84
2021/03/04 04:28:07;;;;;;;41.22;25.02;;;6.50;95.50;;;;;;5062931;28;20135;-83
2021/03/04 04:30:32;;;;;;;42.72;26.35;;;6.50;95.50;;;;;;5046867;28;20063;-85
2021/03/04 04:32:58;;;;;;;44.03;26.88;;;6.50;95.50;;;;;;5046975;28;20032;-84
2021/03/04 04:35:24;;;;;;;44.20;27.33;;;6.50;95.50;;;;;;5030184;28;20511;-84
2021/03/04 04:37:49;;;;;;;41.17;25.67;;;6.50;95.60;;;;;;5046890;28;20024;-85
2021/03/04 04:40:15;;;;;;;42.47;27.50;;;6.50;95.60;;;;;;5051768;28;20112;-85
2021/03/04 04:42:41;;;;;;;46.10;28.00;;;6.60;95.60;;;;;;5033176;28;20085;-84
2021/03/04 04:45:08;;;;;;;43.88;27.65;;;6.60;95.50;;;;;;5033055;28;20029;-86
2021/03/04 04:47:35;;;;;;;51.38;30.67;;;6.60;95.50;;;;;;5032928;28;20036;-82
2021/03/04 04:50:01;;;;;;;47.20;31.02;;;6.60;95.60;;;;;;5049882;28;20384;-85
2021/03/04 04:52:27;;;;;;;46.20;29.75;;;6.60;95.50;;;;;;5016417;28;20472;-83
2021/03/04 04:54:52;;;;;;;48.47;30.73;;;6.60;95.50;;;;;;5016323;28;20036;-85
2021/03/04 04:57:18;;;;;;;51.85;30.77;;;6.60;95.40;;;;;;5032642;28;20098;-84
2021/03/04 04:59:45;;;;;;;45.92;29.88;;;6.60;95.40;;;;;;5016270;28;20463;-82
2021/03/04 05:02:11;;;;;;;53.63;32.38;;;6.60;95.40;;;;;;5016708;28;20064;-84
2021/03/04 05:04:37;;;;;;;49.95;29.75;;;6.60;95.30;;;;;;5049877;28;20529;-85
2021/03/04 05:07:02;;;;;;;55.33;31.20;;;6.60;95.30;;;;;;5016050;28;20036;-82
2021/03/04 05:09:28;;;;;;;52.28;30.35;;;6.60;95.40;;;;;;5049438;28;20032;-84
2021/03/04 05:11:54;;;;;;;47.83;31.08;;;6.60;95.40;;;;;;5032515;28;20123;-84
2021/03/04 05:14:20;;;;;;;41.97;27.98;;;6.60;95.40;;;;;;5016284;28;20115;-82
2021/03/04 05:16:45;;;;;;;39.30;24.08;;;6.60;95.40;;;;;;5048964;28;20025;-85
2021/03/04 05:19:11;;;;;;;41.55;26.90;;;6.60;95.30;;;;;;5016000;28;20487;-85
2021/03/04 05:21:37;;;;;;;45.55;27.65;;;6.60;95.20;;;;;;5032444;28;20076;-84
2021/03/04 05:24:02;;;;;;;45.08;28.33;;;6.60;95.10;;;;;;5016035;28;20083;-85
2021/03/04 05:26:28;;;;;;;43.30;28.35;;;6.60;95.10;;;;;;5032263;28;20538;-84
2021/03/04 05:28:54;;;;;;;44.97;28.13;;;6.60;95.10;;;;;;5032035;28;20084;-83
2021/03/04 05:31:20;;;;;;;44.78;29.33;;;6.60;95.10;;;;;;5032215;28;20079;-84
2021/03/04 05:33:45;;;;;;;43.08;28.17;;;6.50;95.20;;;;;;5048918;28;20043;-86
2021/03/04 05:36:11;;;;;;;43.08;29.20;;;6.40;95.20;;;;;;5048899;28;20022;-87
2021/03/04 05:38:37;;;;;;;42.75;28.77;;;6.40;95.30;;;;;;5032155;28;20053;-85
2021/03/04 05:41:02;;;;;;;42.88;28.42;;;6.40;95.30;;;;;;5032017;28;20036;-86
2021/03/04 05:43:28;;;;;;;40.28;26.13;;;6.40;95.30;;;;;;5031977;28;20029;-85
2021/03/04 05:45:55;;;;;;;41.88;27.15;;;6.40;95.40;;;;;;5015446;28;20091;-85
2021/03/04 05:48:22;;;;;;;43.28;27.75;;;6.30;95.40;;;;;;5031635;28;20036;-84
2021/03/04 05:50:54;;;;;;;31.60;21.55;;;6.30;95.50;;;;;;5047475;28;20078;-86
2021/03/04 05:53:21;;;;;;;36.22;22.58;;;6.40;95.50;;;;;;5048567;28;20056;-85
2021/03/04 05:55:48;;;;;;;32.53;19.38;;;6.40;95.50;;;;;;5032261;28;20582;-85
2021/03/04 05:58:14;;;;;;;32.25;19.40;;;6.40;95.40;;;;;;5031229;28;20037;-74
2021/03/04 06:00:44;;;;;;;32.03;18.02;;;6.40;95.50;;;;;;5049445;28;20047;-73
2021/03/04 06:03:10;;;;;;;;;;;6.40;95.40;;;;;;5049768;28;20029;-86
2021/03/04 06:05:37;;;;;;;25.05;15.90;;;6.40;95.50;;;;;;5048215;28;20003;-84
2021/03/04 06:08:04;;;;;;;19.50;13.95;;;6.40;95.40;;;;;;5048038;28;20036;-85
2021/03/04 06:10:30;;;;;;;23.33;13.25;;;6.40;95.30;;;;;;5047953;28;20483;-85
2021/03/04 06:12:56;;;;;;;20.17;13.07;;;6.40;95.10;;;;;;5031590;28;20499;-86
2021/03/04 06:15:23;;;;;;;20.58;11.70;;;6.30;95.20;;;;;;5031414;28;20127;-86
2021/03/04 06:17:56;;;;;;;20.13;12.82;;;6.20;95.20;;;;;;5047652;28;20029;-85
2021/03/04 06:20:22;;;;;;;22.23;12.80;;;6.20;95.30;;;;;;5015359;28;20472;-86
2021/03/04 06:22:48;;;;;;;16.52;11.23;;;6.30;95.20;;;;;;5031506;28;20033;-85
2021/03/04 06:25:15;;;;;;;21.90;12.10;;;6.30;95.20;;;;;;5031313;28;20029;-85
2021/03/04 06:27:43;;;;;;;17.08;11.27;;;6.30;95.00;;;;;;5030891;28;20475;-85
2021/03/04 06:30:09;;;;;;;17.83;11.48;;;6.40;95.00;;;;;;5014853;28;20507;-85
2021/03/04 06:32:36;;;;;;;20.02;11.88;;;6.40;94.90;;;;;;5031018;28;20030;-86
2021/03/04 06:35:13;;;;;;;19.25;12.20;;;6.40;94.90;;;;;;5031420;28;20029;-84
2021/03/04 06:37:43;;;;;;;18.77;11.90;;;6.40;94.90;;;;;;5030983;28;20060;-85
2021/03/04 06:40:32;;;;;;;25.30;12.77;;;6.40;94.90;;;;;;5047795;28;20037;-85
2021/03/04 06:42:59;;;;;;;19.92;12.75;;;6.40;94.90;;;;;;5047813;28;20029;-85
2021/03/04 06:45:28;;;;;;;21.45;12.68;;;6.40;94.90;;;;;;5047630;28;20025;-85
2021/03/04 06:48:24;;;;;;;25.90;13.75;;;6.50;94.90;;;;;;5047002;28;20408;-84
2021/03/04 06:50:59;;;;;;;21.15;12.93;;;6.50;94.90;;;;;;5047559;28;20029;-85
2021/03/04 06:53:26;;;;;;;23.15;14.32;;;6.50;94.80;;;;;;5047281;28;20078;-85
2021/03/04 06:56:01;;;;;;;25.67;14.02;;;6.60;94.90;;;;;;5047305;28;20048;-86
2021/03/04 06:58:29;;;;;;;24.73;13.43;;;6.70;94.80;;;;;;5046963;28;20424;-84
2021/03/04 07:01:16;;;;;;;21.67;13.25;;;6.70;94.70;;;;;;5047439;28;20044;-85
2021/03/04 07:03:49;;;;;;;29.98;13.45;;;6.70;94.70;;;;;;5046886;28;20521;-85
2021/03/04 07:06:17;;;;;;;26.75;12.85;;;6.70;94.60;;;;;;5030616;28;20043;-85
2021/03/04 07:08:44;;;;;;;26.20;13.32;;;6.70;94.60;;;;;;5014028;28;20036;-84
2021/03/04 07:11:13;;;;;;;19.42;12.50;;;6.70;94.60;;;;;;5030686;28;20087;-84
2021/03/04 07:13:41;;;;;;;32.55;12.82;;;6.80;94.50;;;;;;5030901;28;20056;-86
2021/03/04 07:16:16;;;;;;;22.13;12.43;;;6.70;94.70;;;;;;5047735;28;20025;-85
2021/03/04 07:18:59;;;;;;;22.83;12.85;;;6.80;94.60;;;;;;5047331;28;20043;-85
2021/03/04 07:21:28;;;;;;;51.78;16.08;;;6.70;94.50;;;;;;5047284;28;20021;-84
2021/03/04 07:23:54;;;;;;;23.35;12.88;;;6.70;94.50;;;;;;5047203;28;20025;-85
2021/03/04 07:26:20;;;;;;;16.65;12.00;;;6.70;94.70;;;;;;5047275;28;20034;-85
2021/03/04 07:28:48;;;;;;;19.42;12.52;;;6.70;94.50;;;;;;5048288;28;20484;-85
2021/03/04 07:31:15;;;;;;;27.25;11.82;;;6.70;94.50;;;;;;5047502;28;20048;-84
2021/03/04 07:33:50;;;;;;;24.67;12.48;;;6.60;94.60;;;;;;5047422;28;20022;-85
2021/03/04 07:36:21;;;;;;;19.70;13.07;;;6.60;94.70;;;;;;5047651;28;20472;-85
2021/03/04 07:38:54;;;;;;;24.90;13.18;;;6.60;94.60;;;;;;5047222;28;20119;-82
2021/03/04 07:41:20;;;;;;;32.28;14.15;;;6.60;94.60;;;;;;5030092;28;20045;-84
2021/03/04 07:43:48;;;;;;;21.80;11.50;;;6.50;94.60;;;;;;5030559;28;20039;-84
2021/03/04 07:46:38;;;;;;;25.92;14.23;;;6.50;94.60;;;;;;5047068;28;20036;-85
2021/03/04 07:49:06;;;;;;;23.85;12.65;;;6.50;94.70;;;;;;5046761;28;20075;-85
2021/03/04 07:51:47;;;;;;;31.45;14.45;;;6.60;94.70;;;;;;5046891;28;20025;-87
2021/03/04 07:54:14;;;;;;;21.67;13.70;;;6.60;94.70;;;;;;5030679;28;20551;-87
2021/03/04 07:56:41;;;;;;;18.27;13.10;;;6.60;94.60;;;;;;5047069;28;20476;-85
2021/03/04 07:59:08;;;;;;;23.30;12.48;;;6.60;94.50;;;;;;5047217;28;20064;-85
2021/03/04 08:01:34;;;;;;;22.23;14.57;;;6.60;94.50;;;;;;5046258;28;20048;-86
2021/03/04 08:04:01;;;;;;;24.17;13.82;;;6.60;94.50;;;;;;5013820;28;20029;-85
2021/03/04 08:06:27;;;;;;;26.65;15.75;;;6.50;94.70;;;;;;5014022;28;20040;-85
2021/03/04 08:08:53;;;;;;;23.33;13.23;;;6.50;94.50;;;;;;5013650;28;20091;-85
2021/03/04 08:11:30;;;;;;;21.88;13.73;;;6.50;94.50;;;;;;5029978;28;20048;-85
2021/03/04 08:13:56;;;;;;;21.58;13.55;;;6.50;94.50;;;;;;5030899;28;20029;-85
2021/03/04 08:16:22;;;;;;;28.30;12.75;;;6.40;94.50;;;;;;5033742;28;20033;-84
2021/03/04 08:18:56;;;;;;;24.15;13.45;;;6.40;94.50;;;;;;5050050;28;20039;-85
2021/03/04 08:21:23;;;;;;;26.75;13.27;;;6.40;94.60;;;;;;5034450;28;20040;-85
2021/03/04 08:23:49;;;;;;;20.80;12.55;;;6.40;94.60;;;;;;5049952;28;20411;-83
2021/03/04 08:26:27;;;;;;;25.85;13.20;;;6.40;94.60;;;;;;5033632;28;20029;-83
2021/03/04 08:29:07;;;;;;;20.40;12.68;;;6.40;94.60;;;;;;5049731;28;20262;-84
2021/03/04 08:31:34;;;;;;;26.52;14.48;;;6.40;94.70;;;;;;5050165;28;20017;-84
2021/03/04 08:34:00;;;;;;;26.50;13.48;;;6.40;94.70;;;;;;5034164;28;20032;-86
2021/03/04 08:36:26;;;;;;;20.65;12.43;;;6.40;94.60;;;;;;5051105;28;20630;-82
2021/03/04 08:38:52;;;;;;;23.10;12.35;;;6.50;94.60;;;;;;5034145;28;20056;-84
2021/03/04 08:41:24;;;;;;;20.05;12.05;;;6.40;94.60;;;;;;5051148;28;20060;-85
2021/03/04 08:43:51;;;;;;;19.83;11.68;;;6.40;94.60;;;;;;5050014;28;20029;-84
2021/03/04 08:46:18;;;;;;;18.83;12.65;;;6.40;94.60;;;;;;5033043;28;20033;-85
2021/03/04 08:48:48;;;;;;;22.30;12.38;;;6.50;94.70;;;;;;5049728;28;20087;-86
2021/03/04 08:51:14;;;;;;;20.73;11.50;;;6.50;94.70;;;;;;5032924;28;20051;-84
2021/03/04 08:53:40;;;;;;;18.45;11.82;;;6.60;94.70;;;;;;5032715;28;20127;-84
2021/03/04 08:56:08;;;;;;;19.95;10.68;;;6.60;94.60;;;;;;5032440;28;20124;-84
2021/03/04 08:58:42;;;;;;;25.52;11.18;;;6.70;94.50;;;;;;5048809;28;20432;-85
2021/03/04 09:01:07;;;;;;;25.42;13.50;;;6.70;94.50;;;;;;5048710;28;20021;-85
2021/03/04 09:03:42;;;;;;;17.20;11.30;;;6.70;94.50;;;;;;5050675;28;20024;-84
2021/03/04 09:06:12;;;;;;;22.20;13.25;;;6.80;94.50;;;;;;5049042;28;20025;-87
2021/03/04 09:08:39;;;;;;;27.92;14.63;;;6.90;94.50;;;;;;5050895;28;20041;-85
2021/03/04 09:11:07;;;;;;;29.30;14.50;;;7.00;94.40;;;;;;5033399;28;20029;-83
2021/03/04 09:13:33;;;;;;;20.23;13.52;;;7.00;94.40;;;;;;5033109;28;20480;-84
2021/03/04 09:16:06;;;;;;;21.25;10.98;;;7.00;94.30;;;;;;5032179;28;20036;-83
2021/03/04 09:18:44;;;;;;;16.55;10.73;;;7.10;94.20;;;;;;5048700;28;20522;-83
2021/03/04 09:21:14;;;;;;;28.02;11.20;;;7.20;94.30;;;;;;5032087;28;20040;-84
2021/03/04 09:23:40;;;;;;;14.38;10.15;;;7.20;94.30;;;;;;5032885;28;20525;-84
2021/03/04 09:26:07;;;;;;;20.60;9.80;;;7.30;94.20;;;;;;5031675;28;20369;-86
2021/03/04 09:28:36;;;;;;;20.63;9.02;;;7.40;94.20;;;;;;5015386;28;20037;-85
2021/03/04 09:31:12;;;;;;;26.40;9.43;;;7.40;94.10;;;;;;5049285;28;20025;-85
2021/03/04 09:33:40;;;;;;;17.13;9.23;;;7.40;94.10;;;;;;5049705;28;20025;-84
2021/03/04 09:36:07;;;;;;;17.67;8.38;;;7.50;94.10;;;;;;5031523;28;20064;-84
2021/03/04 09:38:35;;;;;;;15.57;7.75;;;7.50;93.90;;;;;;5048664;28;20094;-83
2021/03/04 09:41:12;;;;;;;13.65;8.48;;;7.50;93.90;;;;;;5049915;28;20025;-84
2021/03/04 09:43:46;;;;;;;15.45;9.02;;;7.60;94.00;;;;;;5015791;28;20055;-85
2021/03/04 09:46:24;;;;;;;10.27;6.97;;;7.60;93.90;;;;;;5048534;28;20048;-84
2021/03/04 09:48:50;;;;;;;13.45;8.32;;;7.60;93.80;;;;;;5049921;28;20052;-83
2021/03/04 09:51:16;;;;;;;16.75;8.15;;;7.60;93.80;;;;;;5031929;28;20025;-85
2021/03/04 09:53:48;;;;;;;16.05;8.98;;;7.70;93.80;;;;;;5032237;28;20025;-84
2021/03/04 09:56:21;;;;;;;12.45;7.60;;;7.70;93.70;;;;;;5048894;28;20044;-84
2021/03/04 09:58:47;;;;;;;14.13;8.02;;;7.70;93.70;;;;;;5016049;28;20029;-85
2021/03/04 10:01:13;;;;;;;16.95;8.80;;;7.70;93.70;;;;;;5032040;28;20043;-84
2021/03/04 10:03:40;;;;;;;10.75;7.47;;;7.70;93.70;;;;;;5049227;28;20472;-83
2021/03/04 10:06:18;;;;;;;13.43;7.47;;;7.80;93.70;;;;;;5016407;28;20021;-83
2021/03/04 10:08:43;;;;;;;19.17;9.35;;;7.80;93.60;;;;;;5048296;28;20043;-82
2021/03/04 10:11:23;;;;;;;13.00;8.13;;;7.90;93.60;;;;;;5030370;28;20035;-84
2021/03/04 10:13:49;;;;;;;13.43;7.95;;;7.90;93.50;;;;;;5048883;28;20047;-85
2021/03/04 10:16:15;;;;;;;10.50;7.50;;;7.90;93.50;;;;;;5047767;28;20025;-86
2021/03/04 10:18:46;;;;;;;13.70;7.65;;;7.80;93.50;;;;;;5047758;28;20491;-86
2021/03/04 10:21:13;;;;;;;21.33;7.50;;;7.80;93.50;;;;;;5031100;28;20116;-85
2021/03/04 10:23:39;;;;;;;13.20;7.22;;;7.90;93.60;;;;;;5048016;28;20377;-86
2021/03/04 10:26:04;;;;;;;20.05;7.28;;;7.90;93.60;;;;;;5050384;28;20032;-84
2021/03/04 10:28:30;;;;;;;12.00;7.10;;;8.00;93.60;;;;;;5047486;28;20049;-84
2021/03/04 10:30:56;;;;;;;11.45;6.82;;;8.00;93.60;;;;;;5047595;28;20078;-84
2021/03/04 10:33:22;;;;;;;18.20;8.15;;;8.00;93.50;;;;;;5031193;28;20485;-86
2021/03/04 10:35:47;;;;;;;14.40;7.25;;;8.00;93.40;;;;;;5015217;28;20025;-83
2021/03/04 10:38:13;;;;;;;17.05;6.90;;;8.00;93.50;;;;;;5014768;28;20625;-86
2021/03/04 10:40:39;;;;;;;12.30;6.43;;;8.10;93.50;;;;;;5047785;28;20036;-84
2021/03/04 10:43:05;;;;;;;12.13;5.60;;;8.10;93.50;;;;;;5014457;28;20371;-84
2021/03/04 10:45:31;;;;;;;12.77;6.10;;;8.10;93.50;;;;;;5013848;28;20033;-87
2021/03/04 10:47:57;;;;;;;13.23;6.18;;;8.10;93.40;;;;;;5047888;28;20048;-83
2021/03/04 10:50:25;;;;;;;13.45;5.95;;;8.10;93.40;;;;;;5030797;28;20032;-84
2021/03/04 10:52:51;;;;;;;9.18;5.47;;;8.10;93.40;;;;;;5048192;28;20064;-84
2021/03/04 10:55:17;;;;;;;9.95;5.13;;;8.10;93.30;;;;;;5031648;28;20037;-85
2021/03/04 10:57:43;;;;;;;10.75;5.57;;;8.20;93.40;;;;;;5014648;28;20092;-85
2021/03/04 11:00:13;;;;;;;8.80;5.22;;;8.30;93.40;;;;;;5046974;28;20020;-85
2021/03/04 11:02:39;;;;;;;8.50;4.57;;;8.30;93.40;;;;;;5046988;28;20036;-85
2021/03/04 11:05:07;;;;;;;11.70;5.10;;;8.40;93.30;;;;;;5046666;28;20109;-85
2021/03/04 11:07:33;;;;;;;21.33;5.72;;;8.50;93.30;;;;;;5031211;28;20041;-84
2021/03/04 11:09:59;;;;;;;11.75;4.80;;;8.60;93.30;;;;;;5046722;28;20029;-86
2021/03/04 11:12:25;;;;;;;30.30;4.72;;;8.70;93.10;;;;;;5014359;28;20094;-86
2021/03/04 11:14:51;;;;;;;11.07;5.57;;;8.60;93.00;;;;;;5047976;28;20182;-85
2021/03/04 11:17:17;;;;;;;9.15;4.88;;;8.60;93.00;;;;;;5047122;28;20490;-85
2021/03/04 11:19:43;;;;;;;20.58;5.20;;;8.60;93.00;;;;;;5047160;28;20176;-85
2021/03/04 11:22:09;;;;;;;11.68;5.18;;;8.60;92.90;;;;;;5047163;28;20021;-87
2021/03/04 11:24:36;;;;;;;17.15;6.78;;;8.70;92.80;;;;;;5047120;28;20075;-87
2021/03/04 11:27:03;;;;;;;12.00;5.55;;;8.70;92.70;;;;;;5047255;28;20040;-84
2021/03/04 11:29:30;;;;;;;11.20;5.93;;;8.70;92.70;;;;;;5048474;28;20021;-87
2021/03/04 11:31:55;;;;;;;13.98;7.05;;;8.70;92.60;;;;;;5046761;28;20021;-87
2021/03/04 11:34:21;;;;;;;18.55;7.88;;;8.70;92.50;;;;;;5047985;28;20031;-82
2021/03/04 11:36:47;;;;;;;19.23;8.35;;;8.60;92.50;;;;;;5048536;28;20560;-86
2021/03/04 11:39:13;;;;;;;17.38;8.10;;;8.60;92.50;;;;;;5030515;28;20120;-85
2021/03/04 11:41:39;;;;;;;22.77;10.70;;;8.50;92.60;;;;;;5046551;28;20115;-83
2021/03/04 11:44:06;;;;;;;21.75;9.95;;;8.50;92.60;;;;;;5047293;28;20120;-86
2021/03/04 11:46:32;;;;;;;27.33;11.25;;;8.50;92.70;;;;;;5046292;28;20114;-85
2021/03/04 11:48:58;;;;;;;22.90;10.65;;;8.50;92.50;;;;;;5030888;28;20073;-84
2021/03/04 11:51:24;;;;;;;25.17;11.38;;;8.40;92.50;;;;;;5034017;28;20032;-86
2021/03/04 11:53:50;;;;;;;21.30;10.18;;;8.40;92.50;;;;;;5052189;28;20021;-85
2021/03/04 11:56:16;;;;;;;26.85;12.30;;;8.50;92.50;;;;;;5050818;28;20021;-85
2021/03/04 11:58:41;;;;;;;23.98;10.75;;;8.50;92.50;;;;;;5049982;28;20044;-86
2021/03/04 12:01:07;;;;;;;25.15;11.13;;;8.50;92.50;;;;;;5033845;28;20075;-85
2021/03/04 12:03:33;;;;;;;24.25;11.20;;;8.50;92.50;;;;;;5033950;28;20033;-87
2021/03/04 12:05:59;;;;;;;24.27;10.77;;;8.60;92.50;;;;;;5033323;28;20025;-85
2021/03/04 12:08:25;;;;;;;26.55;11.90;;;8.60;92.30;;;;;;5050479;28;20032;-85
2021/03/04 12:10:51;;;;;;;23.85;12.40;;;8.50;92.30;;;;;;5050545;28;20032;-85
2021/03/04 12:13:17;;;;;;;22.55;12.05;;;8.50;92.30;;;;;;5034708;28;20471;-85
2021/03/04 12:15:43;;;;;;;22.33;11.27;;;8.50;92.30;;;;;;5018983;28;20029;-83
2021/03/04 12:18:10;;;;;;;25.17;12.70;;;8.50;92.30;;;;;;5034150;28;20448;-83
2021/03/04 12:20:35;;;;;;;26.58;12.38;;;8.50;92.30;;;;;;5052752;28;20419;-84
2021/03/04 12:23:01;;;;;;;27.13;12.77;;;8.50;92.30;;;;;;5051277;28;20029;-84
2021/03/04 12:25:27;;;;;;;29.38;12.15;;;8.50;92.40;;;;;;5052649;28;20052;-85
2021/03/04 12:27:54;;;;;;;25.50;12.35;;;8.50;92.40;;;;;;5051660;28;20055;-85
2021/03/04 12:30:21;;;;;;;28.00;12.60;;;8.50;92.40;;;;;;5034270;28;20021;-85
2021/03/04 12:32:46;;;;;;;31.10;14.25;;;8.60;92.40;;;;;;5050451;28;20013;-85
2021/03/04 12:35:12;;;;;;;37.72;17.38;;;8.60;92.40;;;;;;5049545;28;20112;-84
2021/03/04 12:37:38;;;;;;;33.20;18.55;;;8.70;92.30;;;;;;5050293;28;20025;-85
2021/03/04 12:40:05;;;;;;;33.15;18.65;;;8.70;92.10;;;;;;5050120;28;20106;-87
2021/03/04 12:42:31;;;;;;;31.65;17.25;;;8.70;91.90;;;;;;5034893;28;20200;-85